Time;durP1;ratioP1;P1;durP2;ratioP2;P2;SDS_P1;SDS_P2;PMS_P1;PMS_P2;Temp;Humidity;BMP_temperature;BMP_pressure;BME280_temperature;BME280_humidity;BME280_pressure;Samples;Min_cycle;Max_cycle;Signal;HPM_P1;HPM_P2
2022/04/22 00:00:30;;;;;;;8.85;5.07;;;9.40;70.90;;;;;;2375649;56;21038;-74
2022/04/22 00:02:58;;;;;;;8.75;4.40;;;9.50;70.90;;;;;;2374798;56;21418;-75
2022/04/22 00:05:25;;;;;;;10.20;4.47;;;9.50;71.80;;;;;;2374780;56;21120;-75
2022/04/22 00:07:52;;;;;;;11.25;5.22;;;9.40;71.50;;;;;;2375474;56;21141;-72
2022/04/22 00:10:19;;;;;;;8.48;4.93;;;9.40;70.70;;;;;;2375727;56;21031;-74
2022/04/22 00:12:47;;;;;;;7.50;4.22;;;9.40;70.70;;;;;;2375707;56;21533;-74
2022/04/22 00:15:14;;;;;;;10.73;5.80;;;9.40;70.80;;;;;;2375281;56;21043;-74
2022/04/22 00:17:42;;;;;;;12.05;5.43;;;9.40;70.70;;;;;;2629316;52;21528;-75
2022/04/22 00:20:13;;;;;;;9.82;5.28;;;9.30;70.60;;;;;;2375192;56;21541;-74
2022/04/22 00:22:41;;;;;;;12.98;5.70;;;9.30;70.50;;;;;;2375538;56;21022;-76
2022/04/22 00:25:11;;;;;;;9.75;5.22;;;9.30;70.50;;;;;;2375622;56;21027;-75
2022/04/22 00:27:39;;;;;;;8.68;5.05;;;9.30;70.50;;;;;;2374874;56;21022;-76
2022/04/22 00:30:10;;;;;;;10.50;4.90;;;9.30;70.50;;;;;;2375872;56;21559;-75
2022/04/22 00:32:38;;;;;;;9.60;5.12;;;9.20;70.50;;;;;;2376037;56;21035;-76
2022/04/22 00:35:06;;;;;;;10.32;5.03;;;9.30;70.60;;;;;;2375477;56;21026;-75
2022/04/22 00:37:34;;;;;;;14.15;5.37;;;9.20;70.60;;;;;;2628115;52;21050;-72
2022/04/22 00:40:01;;;;;;;6.75;4.72;;;9.20;70.70;;;;;;2375018;56;21070;-75
2022/04/22 00:42:28;;;;;;;11.07;4.82;;;9.20;71.00;;;;;;2629557;52;21525;-74
2022/04/22 00:44:57;;;;;;;9.35;4.78;;;9.20;71.10;;;;;;2629374;52;21644;-74
2022/04/22 00:47:24;;;;;;;9.50;5.05;;;9.20;71.10;;;;;;2375546;56;21094;-75
2022/04/22 00:49:52;;;;;;;9.25;5.03;;;9.20;71.10;;;;;;2375370;56;21054;-72
2022/04/22 00:52:21;;;;;;;9.77;5.40;;;9.20;71.20;;;;;;2628579;52;21042;-76
2022/04/22 00:54:49;;;;;;;11.65;5.00;;;9.20;71.10;;;;;;2375356;56;21023;-73
2022/04/22 00:57:18;;;;;;;12.00;4.93;;;9.20;71.00;;;;;;2375752;56;21177;-75
2022/04/22 00:59:46;;;;;;;6.70;4.57;;;9.10;71.00;;;;;;2376056;56;21042;-72
2022/04/22 01:02:14;;;;;;;8.82;4.90;;;9.10;71.10;;;;;;2629613;52;21098;-75
2022/04/22 01:13:07;;;;;;;9.35;5.22;;;9.10;70.90;;;;;;2335679;57;38160;-73
2022/04/22 01:15:34;;;;;;;8.05;4.78;;;8.60;73.40;;;;;;2348776;56;21073;-74
2022/04/22 01:18:02;;;;;;;12.35;4.68;;;8.90;72.80;;;;;;2375044;56;21540;-77
2022/04/22 01:20:29;;;;;;;10.70;4.80;;;9.00;71.90;;;;;;2375084;56;21050;-76
2022/04/22 01:22:56;;;;;;;9.38;5.07;;;9.00;71.30;;;;;;2374901;56;21446;-77
2022/04/22 01:25:24;;;;;;;8.35;5.07;;;9.00;71.00;;;;;;2628013;52;21550;-77
2022/04/22 01:27:52;;;;;;;9.95;5.32;;;9.00;70.80;;;;;;2628826;52;21320;-74
2022/04/22 01:30:22;;;;;;;10.27;5.20;;;9.00;70.50;;;;;;2374244;56;21043;-76
2022/04/22 01:32:50;;;;;;;10.43;4.68;;;9.00;70.40;;;;;;2628004;52;21059;-75
2022/04/22 01:35:18;;;;;;;9.25;5.10;;;9.00;70.70;;;;;;2627523;52;21137;-75
2022/04/22 01:37:45;;;;;;;11.82;5.93;;;9.00;70.70;;;;;;2375312;56;21042;-77
2022/04/22 01:40:14;;;;;;;9.55;4.50;;;9.00;70.60;;;;;;2374864;56;21126;-76
2022/04/22 01:42:41;;;;;;;9.27;4.60;;;8.90;70.40;;;;;;2374459;56;21039;-76
2022/04/22 01:45:10;;;;;;;8.23;4.93;;;9.00;70.50;;;;;;2628295;52;21126;-75
2022/04/22 01:47:37;;;;;;;7.90;4.25;;;8.90;70.50;;;;;;2625553;52;21526;-76
2022/04/22 01:50:16;;;;;;;7.82;4.82;;;8.90;70.40;;;;;;2627773;52;21122;-76
2022/04/22 01:52:44;;;;;;;11.93;5.62;;;8.90;70.50;;;;;;2374641;56;21553;-76
2022/04/22 01:55:11;;;;;;;11.12;4.90;;;8.90;70.30;;;;;;2375103;56;21118;-76
2022/04/22 01:57:38;;;;;;;13.80;4.97;;;8.90;70.40;;;;;;2374737;56;21115;-76
2022/04/22 02:00:08;;;;;;;13.05;5.93;;;8.80;70.30;;;;;;2626574;52;21173;-75
2022/04/22 02:02:36;;;;;;;9.07;4.68;;;8.80;70.30;;;;;;2374698;56;21062;-72
2022/04/22 02:05:03;;;;;;;12.77;5.47;;;8.80;70.50;;;;;;2375259;56;21102;-76
2022/04/22 02:07:30;;;;;;;11.10;4.70;;;8.80;70.60;;;;;;2374422;56;21114;-76
2022/04/22 02:09:58;;;;;;;11.52;5.60;;;8.80;70.60;;;;;;2375110;56;21062;-73
2022/04/22 02:12:25;;;;;;;15.40;5.78;;;8.70;70.60;;;;;;2374958;56;21541;-76
2022/04/22 02:14:52;;;;;;;12.20;5.03;;;8.70;70.70;;;;;;2374470;56;21039;-76
2022/04/22 02:17:20;;;;;;;8.35;4.25;;;8.70;71.50;;;;;;2372539;56;21050;-76
2022/04/22 02:19:47;;;;;;;13.15;5.10;;;8.70;71.10;;;;;;2375088;56;21047;-76
2022/04/22 02:22:14;;;;;;;11.40;4.65;;;8.60;71.30;;;;;;2626702;52;21047;-74
2022/04/22 02:24:41;;;;;;;10.00;4.78;;;8.60;71.60;;;;;;2374044;56;21047;-75
2022/04/22 02:29:54;;;;;;;8.27;4.53;;;8.60;71.40;;;;;;2373701;56;20979;-76
2022/04/22 02:32:21;;;;;;;12.40;5.28;;;8.70;71.30;;;;;;2373642;56;21051;-76
2022/04/22 02:34:49;;;;;;;12.95;4.10;;;8.60;71.10;;;;;;2373692;56;21078;-76
2022/04/22 02:37:16;;;;;;;6.55;3.95;;;8.60;71.10;;;;;;2373044;56;21055;-75
2022/04/22 02:39:43;;;;;;;7.65;4.62;;;8.60;71.10;;;;;;2373356;56;21039;-74
2022/04/22 02:47:41;;;;;;;10.70;5.12;;;8.60;70.90;;;;;;2373349;56;21070;-74
2022/04/22 02:50:10;;;;;;;8.05;4.47;;;8.60;70.60;;;;;;2373768;56;21051;-74
2022/04/22 02:52:37;;;;;;;8.38;4.80;;;8.60;70.80;;;;;;2627315;52;21043;-75
2022/04/22 02:55:05;;;;;;;9.68;4.55;;;8.60;70.80;;;;;;2373486;56;21071;-74
2022/04/22 02:57:32;;;;;;;9.05;4.47;;;8.60;70.90;;;;;;2372415;56;21123;-72
2022/04/22 03:00:00;;;;;;;11.77;4.07;;;8.50;70.80;;;;;;2374334;56;21039;-75
2022/04/22 03:02:27;;;;;;;8.13;4.25;;;8.50;70.90;;;;;;2373763;56;21054;-76
2022/04/22 03:04:55;;;;;;;9.90;3.95;;;8.50;71.20;;;;;;2373950;56;21039;-72
2022/04/22 03:07:22;;;;;;;9.43;4.22;;;8.50;71.40;;;;;;2373475;56;21019;-75
2022/04/22 03:09:49;;;;;;;7.00;3.78;;;8.50;71.40;;;;;;2373937;56;21109;-72
2022/04/22 03:12:16;;;;;;;10.13;4.10;;;8.50;71.30;;;;;;2626575;52;21126;-75
2022/04/22 03:14:44;;;;;;;8.77;3.70;;;8.50;71.20;;;;;;2372337;56;21118;-74
2022/04/22 03:17:11;;;;;;;8.30;3.87;;;8.50;71.10;;;;;;2373320;56;21093;-76
2022/04/22 03:19:39;;;;;;;8.32;4.40;;;8.50;70.80;;;;;;2374041;56;21063;-76
2022/04/22 03:22:07;;;;;;;5.87;3.80;;;8.50;70.80;;;;;;2373938;56;21043;-75
2022/04/22 03:24:34;;;;;;;8.07;3.78;;;8.50;70.70;;;;;;2626529;52;21027;-72
2022/04/22 03:27:02;;;;;;;10.98;4.35;;;8.50;70.90;;;;;;2372876;56;21583;-75
2022/04/22 03:29:29;;;;;;;6.68;3.60;;;8.50;70.80;;;;;;2625030;52;21597;-75
2022/04/22 03:31:57;;;;;;;8.05;4.40;;;8.50;70.70;;;;;;2372839;56;21059;-73
2022/04/22 03:34:24;;;;;;;7.12;3.92;;;8.40;70.60;;;;;;2373007;56;21106;-76
2022/04/22 03:36:52;;;;;;;7.15;3.87;;;8.40;70.50;;;;;;2373307;56;21059;-75
2022/04/22 03:39:19;;;;;;;9.52;4.12;;;8.40;70.60;;;;;;2373021;56;21427;-73
2022/04/22 03:41:46;;;;;;;8.68;3.72;;;8.40;70.50;;;;;;2373276;56;21058;-74
2022/04/22 03:44:15;;;;;;;6.65;3.97;;;8.40;70.50;;;;;;2373569;56;21113;-74
2022/04/22 03:46:43;;;;;;;13.68;4.50;;;8.40;70.40;;;;;;2371943;56;21058;-76
2022/04/22 03:49:10;;;;;;;10.70;4.68;;;8.40;70.00;;;;;;2373956;56;21696;-75
2022/04/22 03:51:38;;;;;;;14.98;4.10;;;8.30;69.90;;;;;;2373892;56;21031;-76
2022/04/22 03:54:05;;;;;;;13.20;4.50;;;8.30;70.20;;;;;;2374081;56;21027;-76
2022/04/22 03:59:18;;;;;;;11.93;4.78;;;8.30;70.20;;;;;;2372884;56;21030;-75
2022/04/22 04:01:45;;;;;;;10.10;4.62;;;8.30;70.10;;;;;;2625433;52;21535;-74
2022/04/22 04:04:13;;;;;;;13.20;5.72;;;8.20;70.60;;;;;;2372090;56;21669;-72
2022/04/22 04:06:40;;;;;;;11.77;5.95;;;8.20;70.90;;;;;;2625885;52;21030;-76
2022/04/22 04:17:23;;;;;;;14.13;6.57;;;8.20;71.70;;;;;;2373363;56;21015;-76
2022/04/22 04:25:21;;;;;;;10.65;5.30;;;8.10;73.00;;;;;;2373470;56;21058;-75
2022/04/22 04:27:49;;;;;;;13.18;6.47;;;8.10;73.30;;;;;;2372256;56;21035;-75
2022/04/22 04:30:16;;;;;;;11.85;6.65;;;8.10;73.80;;;;;;2373438;56;21127;-76
2022/04/22 04:32:44;;;;;;;11.93;6.20;;;8.10;74.10;;;;;;2626702;52;21090;-74
2022/04/22 04:35:11;;;;;;;17.20;6.97;;;8.10;74.30;;;;;;2627578;52;21040;-75
2022/04/22 04:37:41;;;;;;;12.70;6.28;;;8.10;74.70;;;;;;2372930;56;21038;-77
2022/04/22 04:40:10;;;;;;;11.10;5.50;;;8.10;74.90;;;;;;2373869;56;21050;-77
2022/04/22 04:42:37;;;;;;;11.02;6.15;;;8.10;75.30;;;;;;2374441;56;21059;-76
2022/04/22 04:45:06;;;;;;;15.45;6.62;;;8.20;75.50;;;;;;2627710;52;21107;-78
2022/04/22 04:47:40;;;;;;;12.20;6.32;;;8.20;75.80;;;;;;2373297;56;21129;-77
2022/04/22 04:50:10;;;;;;;15.73;7.30;;;8.20;76.10;;;;;;2373268;56;21058;-76
2022/04/22 04:52:38;;;;;;;15.50;6.55;;;8.20;76.30;;;;;;2373171;56;21129;-77
2022/04/22 04:55:08;;;;;;;15.05;7.20;;;8.20;76.60;;;;;;2373800;56;21097;-77
2022/04/22 04:57:36;;;;;;;11.70;6.50;;;8.30;76.90;;;;;;2373458;56;21963;-78
2022/04/22 05:00:05;;;;;;;12.48;6.70;;;8.30;77.20;;;;;;2374500;56;21067;-77
2022/04/22 05:02:32;;;;;;;14.45;6.55;;;8.30;76.90;;;;;;2374383;56;21038;-76
2022/04/22 05:05:00;;;;;;;12.52;6.47;;;8.40;76.90;;;;;;2626265;52;21110;-77
2022/04/22 05:07:27;;;;;;;12.85;6.72;;;8.40;76.80;;;;;;2626333;52;21047;-76
2022/04/22 05:09:55;;;;;;;20.75;7.45;;;8.40;76.80;;;;;;2372436;56;21538;-76
2022/04/22 05:12:22;;;;;;;17.67;6.22;;;8.40;77.00;;;;;;2627075;52;21104;-76
2022/04/22 05:14:49;;;;;;;13.55;6.05;;;8.50;77.30;;;;;;2372909;56;21071;-75
2022/04/22 05:17:16;;;;;;;15.05;6.45;;;8.60;76.70;;;;;;2373675;56;21087;-76
2022/04/22 05:19:44;;;;;;;12.88;6.10;;;8.60;77.00;;;;;;2374003;56;21119;-74
2022/04/22 05:22:11;;;;;;;12.23;6.53;;;8.60;77.20;;;;;;2374154;56;21031;-75
2022/04/22 05:24:38;;;;;;;16.42;6.43;;;8.70;77.50;;;;;;2373944;56;21047;-76
2022/04/22 05:27:06;;;;;;;14.45;6.72;;;8.70;77.30;;;;;;2373439;56;21059;-75
2022/04/22 05:32:37;;;;;;;13.27;6.40;;;8.70;78.00;;;;;;2374037;56;21062;-76
2022/04/22 05:35:06;;;;;;;13.25;5.95;;;8.80;77.70;;;;;;2373950;56;21125;-73
2022/04/22 05:37:47;;;;;;;16.42;6.50;;;8.80;77.70;;;;;;2373788;56;21059;-76
2022/04/22 05:40:16;;;;;;;10.95;6.07;;;8.80;78.10;;;;;;2374243;56;21118;-76
2022/04/22 05:42:44;;;;;;;12.65;5.90;;;8.90;78.10;;;;;;2374327;56;21126;-75
2022/04/22 05:45:13;;;;;;;10.95;5.80;;;8.90;78.20;;;;;;2626025;52;21117;-76
2022/04/22 05:47:41;;;;;;;16.17;6.00;;;9.00;78.20;;;;;;2373960;56;21118;-76
2022/04/22 05:50:11;;;;;;;13.93;5.90;;;9.00;78.20;;;;;;2374208;56;21078;-76
2022/04/22 05:52:39;;;;;;;13.23;6.18;;;9.00;78.20;;;;;;2373994;56;21097;-75
2022/04/22 05:55:09;;;;;;;13.43;6.53;;;9.10;78.30;;;;;;2627097;52;21040;-76
2022/04/22 05:57:37;;;;;;;11.45;5.93;;;9.10;78.10;;;;;;2373483;56;21054;-76
2022/04/22 06:00:08;;;;;;;13.38;6.12;;;9.10;77.90;;;;;;2374272;56;21106;-75
2022/04/22 06:02:35;;;;;;;16.15;5.60;;;9.20;78.20;;;;;;2373297;56;21039;-76
2022/04/22 06:05:03;;;;;;;14.95;5.93;;;9.20;78.50;;;;;;2373813;56;21109;-75
2022/04/22 06:07:30;;;;;;;16.60;6.15;;;9.30;79.40;;;;;;2374143;56;21098;-76
2022/04/22 06:12:43;;;;;;;11.02;5.28;;;9.40;78.40;;;;;;2374433;56;21003;-76
2022/04/22 06:15:10;;;;;;;12.07;5.68;;;9.40;78.20;;;;;;2373964;56;21154;-75
2022/04/22 06:20:14;;;;;;;12.32;5.80;;;9.50;78.50;;;;;;2355475;57;22580;-75
2022/04/22 06:22:42;;;;;;;11.43;4.82;;;9.50;78.50;;;;;;2347836;57;21117;-77
2022/04/22 06:25:10;;;;;;;12.85;5.37;;;9.60;78.60;;;;;;2595507;52;21053;-75
2022/04/22 06:27:40;;;;;;;11.00;5.25;;;9.60;78.60;;;;;;2625999;52;21085;-75
2022/04/22 06:30:10;;;;;;;13.65;5.00;;;9.60;78.50;;;;;;2375445;56;21047;-75
2022/04/22 06:32:40;;;;;;;10.05;4.62;;;9.70;78.50;;;;;;2374209;56;21114;-74
2022/04/22 06:35:10;;;;;;;13.32;5.15;;;9.70;78.40;;;;;;2374981;56;21102;-76
2022/04/22 06:37:39;;;;;;;20.73;5.25;;;9.80;77.90;;;;;;2375181;56;21057;-76
2022/04/22 06:45:46;;;;;;;9.10;4.68;;;9.90;77.20;;;;;;2373374;56;20995;-75
2022/04/22 06:48:15;;;;;;;13.98;5.00;;;10.00;77.20;;;;;;2374635;56;21113;-78
2022/04/22 06:50:44;;;;;;;15.65;4.78;;;10.00;77.40;;;;;;2628829;52;21098;-72
2022/04/22 06:53:12;;;;;;;13.18;5.10;;;10.00;77.40;;;;;;2375100;56;21066;-75
2022/04/22 06:55:41;;;;;;;14.02;4.65;;;10.00;77.80;;;;;;2374615;56;21051;-75
2022/04/22 06:58:11;;;;;;;8.18;4.40;;;10.10;77.60;;;;;;2373234;56;21071;-77
2022/04/22 07:00:39;;;;;;;13.93;4.55;;;10.10;77.60;;;;;;2375394;56;21580;-77
2022/04/22 07:03:09;;;;;;;9.32;4.65;;;10.10;77.60;;;;;;2373730;56;21057;-76
2022/04/22 07:05:37;;;;;;;11.85;5.07;;;10.20;77.50;;;;;;2373295;56;21194;-75
2022/04/22 07:08:07;;;;;;;9.90;4.72;;;10.20;77.50;;;;;;2373398;56;21051;-76
2022/04/22 07:10:36;;;;;;;8.05;4.37;;;10.30;77.50;;;;;;2373299;56;21067;-76
2022/04/22 07:13:04;;;;;;;6.32;3.65;;;10.30;76.80;;;;;;2374308;56;21122;-75
2022/04/22 07:15:33;;;;;;;14.87;4.95;;;10.40;76.30;;;;;;2373670;56;21106;-76
2022/04/22 07:18:01;;;;;;;14.57;4.95;;;10.40;76.10;;;;;;2373361;56;21149;-74
2022/04/22 07:20:30;;;;;;;12.55;4.37;;;10.50;75.70;;;;;;2373103;56;21125;-73
2022/04/22 07:22:59;;;;;;;8.90;3.60;;;10.50;75.70;;;;;;2373768;56;21054;-76
2022/04/22 07:25:28;;;;;;;13.07;4.28;;;10.60;76.20;;;;;;2374032;56;21042;-76
2022/04/22 07:27:58;;;;;;;8.85;4.32;;;10.60;75.80;;;;;;2374250;56;21050;-72
2022/04/22 07:30:27;;;;;;;11.65;4.37;;;10.60;75.30;;;;;;2373575;56;21165;-75
2022/04/22 07:32:55;;;;;;;12.30;3.92;;;10.70;75.60;;;;;;2626926;52;21102;-75
2022/04/22 07:35:23;;;;;;;9.15;3.78;;;10.70;75.50;;;;;;2372541;56;21130;-76
2022/04/22 07:37:52;;;;;;;8.15;4.10;;;10.80;75.60;;;;;;2371921;56;21118;-75
2022/04/22 07:40:22;;;;;;;12.25;4.72;;;10.90;75.20;;;;;;2372104;56;21035;-76
2022/04/22 07:48:24;;;;;;;10.25;4.32;;;11.10;75.00;;;;;;2373207;56;21042;-75
2022/04/22 07:50:54;;;;;;;10.27;4.60;;;11.10;74.60;;;;;;2626773;52;21086;-77
2022/04/22 07:53:22;;;;;;;10.75;3.83;;;11.20;74.20;;;;;;2625656;52;21109;-76
2022/04/22 07:55:50;;;;;;;11.30;4.53;;;11.20;74.20;;;;;;2624333;52;21043;-76
2022/04/22 07:58:18;;;;;;;12.32;4.72;;;11.30;74.60;;;;;;2372060;56;21588;-74
2022/04/22 08:00:47;;;;;;;8.80;3.92;;;11.30;74.30;;;;;;2626451;52;21039;-75
2022/04/22 08:03:15;;;;;;;9.60;4.28;;;11.40;74.00;;;;;;2626196;52;21047;-76
2022/04/22 08:05:42;;;;;;;14.32;4.47;;;11.50;73.90;;;;;;2622941;52;21237;-77
2022/04/22 08:08:10;;;;;;;13.15;4.97;;;11.50;74.10;;;;;;2372139;56;21043;-77
2022/04/22 08:10:38;;;;;;;9.52;4.18;;;11.60;73.60;;;;;;2372308;56;21087;-77
2022/04/22 08:13:06;;;;;;;12.55;4.10;;;11.70;74.10;;;;;;2372625;56;21086;-76
2022/04/22 08:15:34;;;;;;;13.95;4.57;;;11.70;74.20;;;;;;2372416;56;21039;-74
2022/04/22 08:18:02;;;;;;;11.18;3.85;;;11.80;74.20;;;;;;2372447;56;21027;-74
2022/04/22 08:20:31;;;;;;;13.32;4.87;;;11.80;73.60;;;;;;2372932;56;21062;-75
2022/04/22 08:22:59;;;;;;;8.48;4.35;;;11.90;72.70;;;;;;2372533;56;21174;-75
2022/04/22 08:25:26;;;;;;;14.48;4.60;;;11.90;72.10;;;;;;2372734;56;21111;-75
2022/04/22 08:27:54;;;;;;;10.63;4.25;;;11.90;71.60;;;;;;2626220;52;21601;-74
2022/04/22 08:30:21;;;;;;;12.25;5.18;;;11.90;71.30;;;;;;2372526;56;21477;-74
2022/04/22 08:32:49;;;;;;;10.73;4.32;;;11.90;71.60;;;;;;2373886;56;22163;-76
2022/04/22 08:35:16;;;;;;;8.45;4.07;;;12.00;71.70;;;;;;2373120;56;21349;-75
2022/04/22 08:37:45;;;;;;;9.00;5.32;;;12.00;71.30;;;;;;2371910;56;21553;-74
2022/04/22 08:40:13;;;;;;;9.73;4.85;;;12.00;71.60;;;;;;2373788;56;21303;-76
2022/04/22 08:42:42;;;;;;;9.88;4.57;;;12.10;72.10;;;;;;2374006;56;21031;-78
2022/04/22 08:45:10;;;;;;;12.40;4.75;;;12.10;71.90;;;;;;2373828;56;21493;-78
2022/04/22 08:50:26;;;;;;;13.85;4.82;;;12.20;72.40;;;;;;2372984;56;21557;-77
2022/04/22 08:55:32;;;;;;;9.43;4.70;;;12.30;72.50;;;;;;2355841;57;22070;-79
2022/04/22 08:58:00;;;;;;;13.93;5.10;;;12.40;72.20;;;;;;2596792;52;21560;-83
2022/04/22 09:00:30;;;;;;;17.17;5.62;;;12.40;71.90;;;;;;2598169;52;21046;-84
2022/04/22 09:02:58;;;;;;;13.77;4.30;;;12.50;71.40;;;;;;2377274;56;21050;-84
2022/04/22 09:05:26;;;;;;;7.10;4.12;;;12.60;71.10;;;;;;2630596;52;21134;-81
2022/04/22 09:07:55;;;;;;;14.00;4.62;;;12.70;71.30;;;;;;2631527;52;21122;-82
2022/04/22 09:12:58;;;;;;;10.45;4.50;;;12.90;71.20;;;;;;2355934;57;22569;-76
2022/04/22 09:15:28;;;;;;;12.27;4.22;;;13.10;71.10;;;;;;2347303;57;21670;-73
2022/04/22 09:17:59;;;;;;;8.30;4.18;;;13.10;70.70;;;;;;2562396;53;21064;-75
2022/04/22 09:20:30;;;;;;;8.57;4.37;;;13.20;69.80;;;;;;2562613;53;21071;-77
2022/04/22 09:22:58;;;;;;;9.68;4.50;;;13.30;69.80;;;;;;2320406;58;21040;-78
2022/04/22 09:25:26;;;;;;;10.50;5.32;;;13.40;69.60;;;;;;2320856;58;21206;-77
2022/04/22 09:28:06;;;;;;;12.52;4.68;;;13.50;68.80;;;;;;2320756;58;21079;-77
2022/04/22 09:30:34;;;;;;;11.60;4.82;;;13.60;68.50;;;;;;2321196;58;21147;-77
2022/04/22 09:33:01;;;;;;;10.18;4.07;;;13.60;68.40;;;;;;2321202;58;21040;-77
2022/04/22 09:35:29;;;;;;;13.35;4.43;;;13.70;68.20;;;;;;2321145;58;21064;-78
2022/04/22 09:46:22;;;;;;;9.90;4.60;;;13.80;67.60;;;;;;2348023;57;22127;-75
2022/04/22 09:48:49;;;;;;;10.15;4.20;;;14.00;67.00;;;;;;2347282;57;21336;-76
2022/04/22 09:51:26;;;;;;;13.05;4.53;;;14.00;67.00;;;;;;2594828;53;21092;-75
2022/04/22 09:54:02;;;;;;;8.18;3.95;;;14.10;67.20;;;;;;2595180;53;21599;-77
2022/04/22 09:56:29;;;;;;;10.93;4.53;;;14.20;66.80;;;;;;2594547;52;21038;-76
2022/04/22 09:58:57;;;;;;;7.18;4.20;;;14.20;66.40;;;;;;2347591;57;21109;-75
2022/04/22 10:01:25;;;;;;;13.30;5.05;;;14.30;66.30;;;;;;2347547;57;21556;-76
2022/04/22 10:03:53;;;;;;;11.88;6.30;;;14.30;65.10;;;;;;2594746;53;21070;-76
2022/04/22 10:06:21;;;;;;;11.32;4.75;;;14.30;65.40;;;;;;2594582;52;21030;-76
2022/04/22 10:08:51;;;;;;;11.02;4.37;;;14.40;65.30;;;;;;2347257;57;21041;-76
2022/04/22 10:11:20;;;;;;;11.77;3.97;;;14.40;65.10;;;;;;2594840;53;21014;-76
2022/04/22 10:13:49;;;;;;;14.68;5.00;;;14.40;65.10;;;;;;2594868;53;21065;-74
2022/04/22 10:16:16;;;;;;;14.38;4.75;;;14.40;64.90;;;;;;2346914;57;21042;-76
2022/04/22 10:18:44;;;;;;;10.23;5.10;;;14.40;64.90;;;;;;2347146;57;21987;-76
2022/04/22 10:21:11;;;;;;;15.50;5.45;;;14.40;64.20;;;;;;2347180;57;21034;-76
2022/04/22 10:23:39;;;;;;;16.33;4.70;;;14.40;64.20;;;;;;2347218;57;21054;-76
2022/04/22 10:26:06;;;;;;;14.98;5.35;;;14.40;64.50;;;;;;2346389;57;21053;-75
2022/04/22 10:28:34;;;;;;;10.55;4.78;;;14.40;64.70;;;;;;2346443;57;21097;-76
2022/04/22 10:31:03;;;;;;;12.52;4.82;;;14.50;64.20;;;;;;2594107;53;21030;-76
2022/04/22 10:33:40;;;;;;;14.95;5.10;;;14.40;64.00;;;;;;2505490;52;22171;-73
2022/04/22 10:36:08;;;;;;;8.68;4.65;;;14.50;64.30;;;;;;2255786;59;21071;-73
2022/04/22 10:38:38;;;;;;;14.35;4.55;;;14.40;63.80;;;;;;2274774;59;21134;-75
2022/04/22 10:41:14;;;;;;;11.12;4.37;;;14.50;63.50;;;;;;2274629;59;21162;-75
2022/04/22 10:43:41;;;;;;;12.02;5.28;;;14.40;63.50;;;;;;2274669;59;21130;-76
2022/04/22 10:49:12;;;;;;;10.70;4.05;;;14.50;64.50;;;;;;2274772;59;21063;-73
2022/04/22 10:52:00;;;;;;;10.63;4.22;;;14.50;64.30;;;;;;2274849;59;21103;-72
2022/04/22 10:55:04;;;;;;;8.52;4.18;;;14.50;64.60;;;;;;2274498;59;21138;-76
2022/04/22 10:57:33;;;;;;;10.02;4.40;;;14.60;64.80;;;;;;2505079;55;21062;-73
2022/04/22 11:00:28;;;;;;;11.05;4.43;;;14.60;64.50;;;;;;2274070;59;21127;-74
2022/04/22 11:03:12;;;;;;;10.25;5.18;;;14.70;64.10;;;;;;2274137;59;21059;-73
2022/04/22 11:05:46;;;;;;;15.07;5.10;;;14.70;64.00;;;;;;2273355;59;21119;-73
2022/04/22 11:08:31;;;;;;;11.25;4.82;;;14.70;64.00;;;;;;2274094;59;21077;-74
2022/04/22 11:13:50;;;;;;;9.90;4.85;;;14.80;63.90;;;;;;2356212;57;22556;-72
2022/04/22 11:16:27;;;;;;;12.43;4.50;;;14.90;64.40;;;;;;2356596;56;21549;-73
2022/04/22 11:19:39;;;;;;;15.55;5.07;;;14.90;64.20;;;;;;2375293;56;21388;-72
2022/04/22 11:22:07;;;;;;;13.10;5.40;;;15.00;64.30;;;;;;2628570;52;21027;-72
2022/04/22 11:24:36;;;;;;;10.82;5.07;;;15.10;63.60;;;;;;2375191;56;21106;-75
2022/04/22 11:27:08;;;;;;;10.70;4.65;;;15.20;63.80;;;;;;2628412;52;21114;-76
2022/04/22 11:29:35;;;;;;;11.43;5.45;;;15.20;63.70;;;;;;2374105;56;21094;-73
2022/04/22 11:32:19;;;;;;;10.23;5.12;;;15.30;63.40;;;;;;2375154;56;21185;-73
2022/04/22 11:35:29;;;;;;;15.82;5.35;;;15.50;64.60;;;;;;2375373;56;21090;-77
2022/04/22 11:37:58;;;;;;;9.52;4.93;;;15.70;63.00;;;;;;2375240;56;21039;-72
2022/04/22 11:40:26;;;;;;;11.88;4.95;;;15.90;63.90;;;;;;2375037;56;21046;-73
2022/04/22 11:42:54;;;;;;;11.18;5.53;;;16.10;63.70;;;;;;2628938;52;21106;-74
2022/04/22 11:45:25;;;;;;;13.80;5.72;;;16.20;61.80;;;;;;2626285;52;21118;-72
2022/04/22 11:47:53;;;;;;;11.32;4.93;;;16.30;61.10;;;;;;2374506;56;21114;-72
2022/04/22 11:50:22;;;;;;;11.05;5.18;;;16.40;60.70;;;;;;2374892;56;21213;-73
2022/04/22 11:52:56;;;;;;;11.52;5.37;;;16.50;60.70;;;;;;2374690;56;21106;-75
2022/04/22 11:55:24;;;;;;;13.48;5.40;;;16.60;60.30;;;;;;2374421;56;21051;-72
2022/04/22 11:57:51;;;;;;;12.20;5.12;;;16.70;59.80;;;;;;2374863;56;21034;-73
2022/04/22 12:05:52;;;;;;;11.15;5.47;;;16.90;59.30;;;;;;2373931;56;21090;-73
2022/04/22 12:08:20;;;;;;;9.25;4.43;;;16.90;59.00;;;;;;2374287;56;21537;-72
2022/04/22 12:10:48;;;;;;;12.18;5.35;;;16.90;59.30;;;;;;2374548;56;21078;-72
2022/04/22 12:13:17;;;;;;;12.93;4.85;;;17.00;59.00;;;;;;2373974;56;21043;-73
2022/04/22 12:15:46;;;;;;;11.32;5.45;;;17.20;59.00;;;;;;2374113;56;21043;-72
2022/04/22 12:18:29;;;;;;;12.77;5.47;;;17.20;59.00;;;;;;2374627;56;21118;-74
2022/04/22 12:20:58;;;;;;;12.02;5.25;;;17.40;58.70;;;;;;2373368;56;21054;-77
2022/04/22 12:23:33;;;;;;;9.00;5.25;;;17.40;58.30;;;;;;2373150;56;21141;-77
2022/04/22 12:26:00;;;;;;;9.95;5.10;;;17.50;57.90;;;;;;2372786;56;21127;-73
2022/04/22 12:28:28;;;;;;;10.90;5.07;;;17.60;58.40;;;;;;2373739;56;21035;-73
2022/04/22 12:30:56;;;;;;;9.18;5.00;;;17.60;57.50;;;;;;2373520;56;21094;-76
2022/04/22 12:33:24;;;;;;;13.80;5.53;;;17.60;56.90;;;;;;2373397;56;21082;-73
2022/04/22 12:36:04;;;;;;;9.43;5.15;;;17.60;56.90;;;;;;2373219;56;21043;-72
2022/04/22 12:38:32;;;;;;;12.45;5.68;;;17.60;56.60;;;;;;2373718;56;21059;-72
2022/04/22 12:40:59;;;;;;;8.65;4.87;;;17.50;56.20;;;;;;2372274;56;21042;-73
2022/04/22 12:43:28;;;;;;;12.13;5.80;;;17.50;56.50;;;;;;2373551;56;21126;-76
2022/04/22 12:54:16;;;;;;;8.50;4.95;;;17.60;57.30;;;;;;2372480;56;21018;-72
2022/04/22 12:56:53;;;;;;;8.65;4.80;;;17.60;56.60;;;;;;2372435;56;21062;-73
2022/04/22 12:59:21;;;;;;;12.23;5.43;;;17.60;57.00;;;;;;2373186;56;21078;-73
2022/04/22 13:01:49;;;;;;;13.43;5.50;;;17.60;56.80;;;;;;2625728;52;21038;-75
2022/04/22 13:04:23;;;;;;;12.43;5.22;;;17.70;57.10;;;;;;2626540;52;21541;-73
2022/04/22 13:06:50;;;;;;;9.15;4.70;;;17.80;57.20;;;;;;2372683;56;21186;-73
2022/04/22 13:09:20;;;;;;;9.70;4.82;;;17.80;57.00;;;;;;2373339;56;21125;-72
2022/04/22 13:11:49;;;;;;;9.88;4.55;;;17.80;56.30;;;;;;2626521;52;21126;-72
2022/04/22 13:14:17;;;;;;;12.90;5.60;;;17.80;56.60;;;;;;2373167;56;21110;-73
2022/04/22 13:16:45;;;;;;;15.55;5.90;;;17.90;56.70;;;;;;2372178;56;22217;-73
2022/04/22 13:19:12;;;;;;;11.30;5.25;;;17.90;56.30;;;;;;2373196;56;21038;-72
2022/04/22 13:21:40;;;;;;;9.43;5.53;;;17.90;56.10;;;;;;2372467;56;21561;-73
2022/04/22 13:24:08;;;;;;;10.77;5.40;;;17.90;55.80;;;;;;2373595;56;21051;-75
2022/04/22 13:26:35;;;;;;;11.70;4.93;;;17.90;55.50;;;;;;2373188;56;21039;-74
2022/04/22 13:29:05;;;;;;;12.60;5.28;;;17.90;55.70;;;;;;2373310;56;21328;-73
2022/04/22 13:31:33;;;;;;;12.52;5.47;;;17.80;56.10;;;;;;2373607;56;21115;-73
2022/04/22 13:34:01;;;;;;;13.43;5.10;;;17.80;55.60;;;;;;2373339;56;21170;-74
2022/04/22 13:36:29;;;;;;;13.75;5.12;;;17.80;55.40;;;;;;2370986;56;21115;-73
2022/04/22 13:38:57;;;;;;;13.98;5.25;;;17.70;55.70;;;;;;2373463;56;21027;-73
2022/04/22 13:41:24;;;;;;;12.75;6.07;;;17.60;56.10;;;;;;2373701;56;21059;-73
2022/04/22 13:43:51;;;;;;;10.75;4.90;;;17.60;56.20;;;;;;2373896;56;21027;-73
2022/04/22 13:54:49;;;;;;;12.75;4.97;;;17.60;56.90;;;;;;2321840;56;21059;-75
2022/04/22 13:57:16;;;;;;;12.18;5.82;;;17.50;56.80;;;;;;2372891;56;21087;-73
2022/04/22 13:59:43;;;;;;;11.80;4.87;;;17.50;56.90;;;;;;2373859;56;21561;-74
2022/04/22 14:02:10;;;;;;;11.70;5.20;;;17.40;56.90;;;;;;2373674;56;21640;-74
2022/04/22 14:04:38;;;;;;;13.32;5.50;;;17.30;56.70;;;;;;2373859;56;21537;-75
2022/04/22 14:07:06;;;;;;;10.05;5.32;;;17.30;56.40;;;;;;2625918;52;21106;-75
2022/04/22 14:09:35;;;;;;;13.98;5.07;;;17.30;56.60;;;;;;2372746;56;21051;-75
2022/04/22 14:12:03;;;;;;;10.02;5.18;;;17.20;56.70;;;;;;2370659;56;21071;-75
2022/04/22 14:14:30;;;;;;;13.85;6.25;;;17.20;57.30;;;;;;2372890;56;21101;-75
2022/04/22 14:16:57;;;;;;;7.82;5.22;;;17.10;57.00;;;;;;2373242;56;21110;-74
2022/04/22 14:19:25;;;;;;;15.00;6.10;;;17.10;57.10;;;;;;2373857;56;21055;-74
2022/04/22 14:21:53;;;;;;;9.95;5.95;;;17.10;57.30;;;;;;2626433;52;21063;-74
2022/04/22 14:24:20;;;;;;;14.25;6.40;;;17.00;57.30;;;;;;2627032;52;21099;-75
2022/04/22 14:26:47;;;;;;;17.05;6.28;;;17.00;57.10;;;;;;2372895;56;21042;-74
2022/04/22 14:29:15;;;;;;;14.75;6.43;;;17.00;57.60;;;;;;2372505;56;21141;-74
2022/04/22 14:31:42;;;;;;;12.80;6.22;;;17.00;58.00;;;;;;2372331;56;21031;-73